Time;durP1;ratioP1;P1;durP2;ratioP2;P2;SDS_P1;SDS_P2;PMS_P1;PMS_P2;Temp;Humidity;BMP_temperature;BMP_pressure;BME280_temperature;BME280_humidity;BME280_pressure;Samples;Min_cycle;Max_cycle;Signal;HPM_P1;HPM_P2
2022/03/05 00:01:06;;;;;;;7.25;4.28;;;3.00;96.00;;;;;;5034732;28;20060;-70
2022/03/05 00:03:32;;;;;;;6.13;3.70;;;3.00;95.90;;;;;;5037135;28;20036;-71
2022/03/05 00:05:57;;;;;;;10.48;5.00;;;3.00;95.40;;;;;;5036950;28;20037;-70
2022/03/05 00:08:23;;;;;;;7.05;4.57;;;3.00;96.00;;;;;;5038094;28;20030;-70
2022/03/05 00:10:49;;;;;;;8.55;5.47;;;3.00;96.20;;;;;;5036207;28;20024;-70
2022/03/05 00:13:15;;;;;;;10.05;5.35;;;2.90;95.90;;;;;;5034011;28;20029;-70
2022/03/05 00:15:42;;;;;;;7.13;4.65;;;2.90;95.80;;;;;;5035866;28;20047;-70
2022/03/05 00:18:07;;;;;;;7.75;4.70;;;2.90;96.00;;;;;;5038034;28;20025;-71
2022/03/05 00:20:33;;;;;;;9.02;5.28;;;2.90;96.30;;;;;;5034624;28;20477;-71
2022/03/05 00:22:58;;;;;;;7.78;4.53;;;2.90;96.10;;;;;;5038459;28;20098;-71
2022/03/05 00:25:25;;;;;;;6.75;4.65;;;2.80;96.00;;;;;;5037244;28;20025;-70
2022/03/05 00:27:52;;;;;;;9.27;5.40;;;2.80;96.50;;;;;;5036683;28;20385;-70
2022/03/05 00:30:17;;;;;;;7.78;4.72;;;2.70;96.60;;;;;;5035547;28;20025;-70
2022/03/05 00:32:44;;;;;;;5.20;4.18;;;2.70;96.70;;;;;;5037995;28;20036;-70
2022/03/05 00:35:10;;;;;;;7.57;5.10;;;2.60;97.00;;;;;;5035615;28;20091;-71
2022/03/05 00:37:36;;;;;;;8.38;4.93;;;2.50;97.10;;;;;;5036266;28;20057;-70
2022/03/05 00:40:03;;;;;;;8.18;5.05;;;2.50;97.40;;;;;;5037458;28;20069;-70
2022/03/05 00:42:29;;;;;;;7.00;4.63;;;2.40;97.30;;;;;;5035892;28;20032;-70
2022/03/05 00:44:54;;;;;;;9.55;5.93;;;2.30;97.60;;;;;;5036556;28;20416;-70
2022/03/05 00:47:20;;;;;;;10.90;5.65;;;2.30;97.60;;;;;;5036019;28;20041;-70
2022/03/05 00:49:45;;;;;;;10.07;5.18;;;2.30;97.80;;;;;;5036767;28;20061;-70
2022/03/05 00:52:11;;;;;;;8.57;4.95;;;2.20;97.90;;;;;;5037092;28;20154;-70
2022/03/05 00:54:36;;;;;;;12.07;6.63;;;2.20;98.10;;;;;;5034278;28;20488;-70
2022/03/05 00:57:02;;;;;;;12.60;6.90;;;2.10;98.00;;;;;;5037783;28;20738;-70
2022/03/05 00:59:28;;;;;;;9.20;4.80;;;2.10;98.20;;;;;;5035310;28;20072;-70
2022/03/05 01:01:54;;;;;;;8.63;5.03;;;2.00;98.70;;;;;;5033186;28;20037;-70
2022/03/05 01:04:20;;;;;;;9.05;5.93;;;1.90;98.70;;;;;;5029107;28;20446;-70
2022/03/05 01:06:45;;;;;;;9.30;5.57;;;1.90;99.00;;;;;;5036654;28;20078;-70
2022/03/05 01:09:11;;;;;;;10.38;5.88;;;1.80;99.10;;;;;;5033632;28;20446;-70
2022/03/05 01:11:37;;;;;;;9.32;5.97;;;1.80;99.50;;;;;;5034873;28;20071;-70
2022/03/05 01:14:02;;;;;;;;;;;1.80;99.80;;;;;;5035118;28;20032;-70
2022/03/05 01:16:28;;;;;;;7.63;5.28;;;1.80;99.90;;;;;;5032615;28;19913;-70
2022/03/05 01:18:54;;;;;;;11.35;5.90;;;1.70;99.90;;;;;;5035162;28;20029;-70
2022/03/05 01:21:19;;;;;;;8.73;5.72;;;1.70;99.90;;;;;;5035801;28;20033;-70
2022/03/05 01:23:45;;;;;;;8.55;5.35;;;1.60;99.90;;;;;;5037328;28;20045;-70
2022/03/05 01:26:10;;;;;;;14.20;6.63;;;1.60;99.90;;;;;;5034435;28;20080;-70
2022/03/05 01:28:35;;;;;;;8.85;5.72;;;1.50;99.90;;;;;;5035861;28;20115;-70
2022/03/05 01:31:01;;;;;;;10.15;6.53;;;1.50;99.90;;;;;;5035415;28;20037;-70
2022/03/05 01:33:27;;;;;;;12.95;6.82;;;1.50;99.90;;;;;;5036160;28;20026;-70
2022/03/05 01:35:52;;;;;;;10.45;6.22;;;1.50;99.90;;;;;;5036132;28;20132;-70
2022/03/05 01:38:19;;;;;;;12.00;6.72;;;1.40;99.90;;;;;;5036656;28;20029;-70
2022/03/05 01:40:45;;;;;;;12.40;6.55;;;1.40;99.90;;;;;;5035581;28;20039;-70
2022/03/05 01:43:11;;;;;;;13.15;8.02;;;1.40;99.90;;;;;;5033831;28;20025;-70
2022/03/05 01:45:37;;;;;;;10.35;7.15;;;1.30;99.90;;;;;;5034501;28;20032;-70
2022/03/05 01:48:03;;;;;;;;;;;1.30;99.90;;;;;;5035894;28;20063;-70
2022/03/05 01:50:29;;;;;;;9.75;6.82;;;1.30;99.90;;;;;;5035353;28;19909;-70
2022/03/05 01:52:54;;;;;;;13.10;6.65;;;1.30;99.90;;;;;;5035489;28;20075;-70
2022/03/05 01:55:20;;;;;;;16.75;7.50;;;1.20;99.90;;;;;;5036439;28;20124;-70
2022/03/05 01:57:46;;;;;;;16.40;8.32;;;1.20;99.90;;;;;;5036449;28;20497;-70
2022/03/05 02:00:13;;;;;;;13.80;9.13;;;1.20;99.90;;;;;;5034255;28;20039;-70
2022/03/05 02:02:40;;;;;;;9.35;6.97;;;1.20;99.90;;;;;;5032440;28;20414;-70
2022/03/05 02:05:05;;;;;;;9.57;6.25;;;1.10;99.90;;;;;;5035052;28;20080;-70
2022/03/05 02:07:32;;;;;;;10.63;6.78;;;1.10;99.90;;;;;;5032767;28;20021;-70
2022/03/05 02:09:58;;;;;;;13.88;7.18;;;1.10;99.90;;;;;;5036173;28;20033;-70
2022/03/05 02:12:29;;;;;;;12.80;6.68;;;1.10;99.90;;;;;;5031728;28;20556;-70
2022/03/05 02:14:54;;;;;;;9.65;5.65;;;1.00;99.90;;;;;;5034766;28;20469;-69
2022/03/05 02:17:20;;;;;;;15.05;8.75;;;1.00;99.90;;;;;;5036509;28;20033;-70
2022/03/05 02:19:45;;;;;;;11.05;5.97;;;1.00;99.90;;;;;;5035988;28;20041;-70
2022/03/05 02:22:11;;;;;;;11.50;7.25;;;1.00;99.90;;;;;;5036336;28;20532;-70
2022/03/05 02:24:38;;;;;;;11.82;7.30;;;0.90;99.90;;;;;;5032962;28;20033;-70
2022/03/05 02:27:05;;;;;;;9.80;7.03;;;0.90;99.90;;;;;;5035485;28;20029;-70
2022/03/05 02:29:31;;;;;;;13.70;7.43;;;0.90;99.90;;;;;;5034605;28;20100;-70
2022/03/05 02:31:57;;;;;;;12.70;7.68;;;0.90;99.90;;;;;;5032395;28;20087;-70
2022/03/05 02:34:22;;;;;;;11.55;8.20;;;0.90;99.90;;;;;;5035367;28;20036;-70
2022/03/05 02:36:48;;;;;;;11.80;7.40;;;0.90;99.90;;;;;;5037121;28;20033;-70
2022/03/05 02:39:14;;;;;;;13.50;8.23;;;0.90;99.90;;;;;;5035319;28;20029;-70
2022/03/05 02:41:39;;;;;;;14.60;7.78;;;0.90;99.90;;;;;;5034442;28;20136;-70
2022/03/05 02:44:05;;;;;;;15.52;8.73;;;0.90;99.90;;;;;;5039818;28;20033;-70
2022/03/05 02:46:33;;;;;;;15.65;9.35;;;1.00;99.90;;;;;;5037390;28;20029;-70
2022/03/05 02:48:59;;;;;;;13.45;8.48;;;0.90;99.90;;;;;;5040546;28;20025;-70
2022/03/05 02:51:25;;;;;;;14.90;7.65;;;0.90;99.90;;;;;;5036992;28;20065;-70
2022/03/05 02:53:51;;;;;;;14.63;9.00;;;0.90;99.90;;;;;;5040111;28;20497;-69
2022/03/05 02:56:16;;;;;;;13.00;8.43;;;0.80;99.90;;;;;;5037702;28;20034;-70
2022/03/05 02:58:42;;;;;;;13.00;8.10;;;0.80;99.90;;;;;;5040575;28;20033;-70
2022/03/05 03:01:08;;;;;;;11.00;7.82;;;0.80;99.90;;;;;;5036108;28;20099;-70
2022/03/05 03:03:34;;;;;;;18.58;8.45;;;0.70;99.90;;;;;;5036847;28;20035;-70
2022/03/05 03:06:00;;;;;;;15.38;8.35;;;0.70;99.90;;;;;;5037723;28;20130;-69
2022/03/05 03:08:26;;;;;;;15.75;7.93;;;0.70;99.90;;;;;;5038922;28;20245;-70
2022/03/05 03:10:51;;;;;;;12.48;8.05;;;0.70;99.90;;;;;;5038100;28;20490;-70
2022/03/05 03:13:17;;;;;;;11.60;7.35;;;0.60;99.90;;;;;;5035014;28;20021;-70
2022/03/05 03:15:42;;;;;;;14.95;9.65;;;0.60;99.90;;;;;;5037135;28;20060;-70
2022/03/05 03:18:08;;;;;;;15.77;8.43;;;0.60;99.90;;;;;;5038349;28;20021;-70
2022/03/05 03:20:33;;;;;;;13.88;7.95;;;0.50;99.90;;;;;;5038943;28;20032;-70
2022/03/05 03:22:59;;;;;;;13.95;8.90;;;0.50;99.90;;;;;;5039032;28;20549;-70
2022/03/05 03:25:25;;;;;;;;;;;0.50;99.90;;;;;;5038731;28;20045;-69
2022/03/05 03:27:51;;;;;;;18.02;9.18;;;0.50;99.90;;;;;;5037000;28;19909;-70
2022/03/05 03:30:17;;;;;;;;;;;0.50;99.90;;;;;;5035247;28;20036;-70
2022/03/05 03:32:43;;;;;;;14.02;7.80;;;0.50;99.90;;;;;;5036677;28;19952;-70
2022/03/05 03:35:11;;;;;;;14.50;9.52;;;0.50;99.90;;;;;;5038398;28;20025;-70
2022/03/05 03:37:37;;;;;;;18.88;12.05;;;0.50;99.90;;;;;;5039431;28;20032;-70
2022/03/05 03:40:05;;;;;;;18.55;9.35;;;0.40;99.90;;;;;;5037570;28;20025;-69
2022/03/05 03:42:30;;;;;;;38.78;15.85;;;0.40;99.90;;;;;;5034955;28;20033;-70
2022/03/05 03:44:56;;;;;;;37.78;16.95;;;0.40;99.90;;;;;;5038314;28;20543;-70
2022/03/05 03:47:22;;;;;;;54.03;25.63;;;0.40;99.90;;;;;;5034970;28;20041;-70
2022/03/05 03:49:48;;;;;;;48.33;23.38;;;0.40;99.90;;;;;;5037774;28;20075;-70
2022/03/05 03:52:14;;;;;;;33.10;17.10;;;0.30;99.90;;;;;;5039261;28;20021;-70
2022/03/05 03:54:41;;;;;;;35.78;19.17;;;0.30;99.90;;;;;;5037468;28;20847;-70
2022/03/05 03:57:07;;;;;;;27.75;15.82;;;0.30;99.90;;;;;;5038761;28;20021;-70
2022/03/05 03:59:32;;;;;;;55.97;30.13;;;0.30;99.90;;;;;;5036598;28;20041;-69
2022/03/05 04:01:58;;;;;;;19.77;12.15;;;0.30;99.90;;;;;;5035479;28;20072;-70
2022/03/05 04:04:23;;;;;;;18.90;11.52;;;0.30;99.90;;;;;;5035834;28;20033;-70
2022/03/05 04:09:33;;;;;;;25.85;13.75;;;0.30;99.90;;;;;;5036911;28;20044;-70
2022/03/05 04:11:59;;;;;;;26.17;14.52;;;0.20;99.90;;;;;;5037924;28;20394;-70
2022/03/05 04:14:24;;;;;;;24.80;12.27;;;0.30;99.90;;;;;;5036348;28;20105;-70
2022/03/05 04:16:50;;;;;;;20.92;10.30;;;0.20;99.90;;;;;;5036946;28;20106;-70
2022/03/05 04:19:15;;;;;;;17.75;11.15;;;0.20;99.90;;;;;;5037758;28;20095;-70
2022/03/05 04:21:41;;;;;;;18.75;8.73;;;0.20;99.90;;;;;;5036404;28;20033;-70
2022/03/05 04:24:07;;;;;;;12.25;7.30;;;0.20;99.90;;;;;;5038075;28;20041;-70
2022/03/05 04:26:32;;;;;;;10.02;5.70;;;0.20;99.90;;;;;;5036625;28;20049;-70
2022/03/05 04:28:58;;;;;;;20.08;10.10;;;0.20;99.90;;;;;;5038521;28;20889;-70
2022/03/05 04:31:23;;;;;;;24.63;13.57;;;0.10;99.90;;;;;;5037450;28;20024;-70
2022/03/05 04:33:49;;;;;;;18.40;9.27;;;0.10;99.90;;;;;;5036679;28;20033;-70
2022/03/05 04:36:14;;;;;;;21.70;12.88;;;0.10;99.90;;;;;;5036381;28;20025;-70
2022/03/05 04:38:40;;;;;;;15.65;8.70;;;0.10;99.90;;;;;;5036157;28;20073;-70
2022/03/05 04:41:05;;;;;;;9.55;6.07;;;0.10;99.90;;;;;;5034980;28;20077;-69
2022/03/05 04:43:31;;;;;;;12.98;6.65;;;0.00;99.90;;;;;;5037450;28;20037;-70
2022/03/05 04:45:57;;;;;;;10.10;6.47;;;0.00;99.90;;;;;;5034991;28;20397;-69
2022/03/05 04:48:22;;;;;;;18.35;8.80;;;0.00;99.90;;;;;;5034510;28;20094;-69
2022/03/05 04:50:48;;;;;;;12.35;8.07;;;-0.10;99.90;;;;;;5038631;28;20036;-70
2022/03/05 04:53:15;;;;;;;13.57;7.60;;;-0.10;99.90;;;;;;5032859;28;20188;-69
2022/03/05 04:55:41;;;;;;;10.40;6.43;;;-0.10;99.90;;;;;;5038984;28;20029;-69
2022/03/05 04:58:07;;;;;;;12.10;8.00;;;-0.10;99.90;;;;;;5034413;28;20126;-69
2022/03/05 05:00:32;;;;;;;14.20;6.80;;;-0.10;99.90;;;;;;5037642;28;20029;-69
2022/03/05 05:02:58;;;;;;;9.45;6.00;;;-0.10;99.90;;;;;;5036227;28;20501;-69
2022/03/05 05:05:24;;;;;;;9.55;5.80;;;-0.10;99.90;;;;;;5035656;28;20041;-69
2022/03/05 05:07:49;;;;;;;15.32;5.95;;;-0.10;99.90;;;;;;5036168;28;20108;-69
2022/03/05 05:10:15;;;;;;;14.27;7.00;;;-0.20;99.90;;;;;;5036363;28;20116;-69
2022/03/05 05:12:41;;;;;;;11.43;5.55;;;-0.20;99.90;;;;;;5035465;28;20394;-69
2022/03/05 05:15:07;;;;;;;13.85;6.10;;;-0.20;99.90;;;;;;5035679;28;20056;-69
2022/03/05 05:17:36;;;;;;;;;;;-0.20;99.90;;;;;;5036034;28;20041;-69
2022/03/05 05:20:02;;;;;;;9.77;5.97;;;-0.20;99.90;;;;;;5038621;28;20264;-69
2022/03/05 05:22:29;;;;;;;9.70;4.90;;;-0.20;99.90;;;;;;5036025;28;20041;-69
2022/03/05 05:24:55;;;;;;;9.50;6.45;;;-0.30;99.90;;;;;;5036901;28;20505;-69
2022/03/05 05:27:20;;;;;;;11.13;6.55;;;-0.30;99.90;;;;;;5032858;28;20025;-69
2022/03/05 05:29:46;;;;;;;11.70;6.75;;;-0.30;99.90;;;;;;5038521;28;20455;-69
2022/03/05 05:32:11;;;;;;;9.05;6.32;;;-0.30;99.90;;;;;;5034467;28;20021;-69
2022/03/05 05:34:37;;;;;;;11.35;5.85;;;-0.30;99.90;;;;;;5038196;28;20041;-69
2022/03/05 05:37:03;;;;;;;11.27;6.53;;;-0.30;99.90;;;;;;5034921;28;20029;-69
2022/03/05 05:39:29;;;;;;;12.48;6.40;;;-0.30;99.90;;;;;;5037777;28;20029;-70
2022/03/05 05:41:55;;;;;;;17.27;8.07;;;-0.30;99.90;;;;;;5034678;28;20170;-69
2022/03/05 05:44:21;;;;;;;10.40;6.00;;;-0.30;99.90;;;;;;5037579;28;20041;-69
2022/03/05 05:46:46;;;;;;;11.73;5.07;;;-0.30;99.90;;;;;;5033892;28;20025;-69
2022/03/05 05:49:12;;;;;;;16.77;9.70;;;-0.30;99.90;;;;;;5036714;28;20501;-69
2022/03/05 05:51:37;;;;;;;14.15;7.03;;;-0.30;99.90;;;;;;5032362;28;20626;-70
2022/03/05 05:54:03;;;;;;;10.18;6.25;;;-0.30;99.90;;;;;;5036695;28;20033;-69
2022/03/05 05:56:29;;;;;;;10.30;6.28;;;-0.30;99.90;;;;;;5034939;28;20026;-69
2022/03/05 05:58:55;;;;;;;15.02;5.63;;;-0.30;99.90;;;;;;5033913;28;20035;-69
2022/03/05 06:01:21;;;;;;;7.15;4.47;;;-0.30;99.90;;;;;;5033671;28;20108;-69
2022/03/05 06:03:48;;;;;;;11.43;6.45;;;-0.30;99.90;;;;;;5035949;28;20386;-69
2022/03/05 06:06:14;;;;;;;8.20;5.13;;;-0.30;99.90;;;;;;5034418;28;20034;-69
2022/03/05 06:08:40;;;;;;;12.38;6.03;;;-0.30;99.90;;;;;;5035357;28;20041;-69
2022/03/05 06:11:06;;;;;;;12.48;6.80;;;-0.30;99.90;;;;;;5032855;28;20386;-69
2022/03/05 06:13:32;;;;;;;12.35;6.65;;;-0.30;99.90;;;;;;5036386;28;20036;-69
2022/03/05 06:15:57;;;;;;;13.98;7.60;;;-0.30;99.90;;;;;;5032355;28;20033;-69
2022/03/05 06:18:23;;;;;;;11.82;5.15;;;-0.30;99.90;;;;;;5038248;28;20043;-69
2022/03/05 06:20:49;;;;;;;11.40;4.80;;;-0.30;99.90;;;;;;5040394;28;20033;-68
2022/03/05 06:23:17;;;;;;;8.63;4.75;;;-0.30;99.90;;;;;;5038541;28;20062;-69
2022/03/05 06:25:43;;;;;;;6.22;3.97;;;-0.30;99.90;;;;;;5040231;28;20025;-69
2022/03/05 06:28:08;;;;;;;10.73;6.38;;;-0.20;99.90;;;;;;5039823;28;20103;-69
2022/03/05 06:30:34;;;;;;;8.93;5.07;;;-0.20;99.90;;;;;;5035966;28;20091;-69
2022/03/05 06:32:59;;;;;;;12.63;5.78;;;-0.20;99.90;;;;;;5040341;28;20032;-69
2022/03/05 06:35:25;;;;;;;10.70;6.20;;;-0.10;99.90;;;;;;5040001;28;20116;-69
2022/03/05 06:37:51;;;;;;;10.68;6.80;;;-0.10;99.90;;;;;;5038720;28;20112;-69
2022/03/05 06:40:16;;;;;;;12.07;5.15;;;-0.10;99.90;;;;;;5039480;28;20061;-69
2022/03/05 06:42:44;;;;;;;13.65;5.80;;;-0.10;99.90;;;;;;5038883;28;20061;-69
2022/03/05 06:45:10;;;;;;;10.02;5.03;;;-0.10;99.90;;;;;;5038334;28;20033;-69
2022/03/05 06:47:36;;;;;;;10.80;5.35;;;0.00;99.90;;;;;;5040439;28;20036;-68
2022/03/05 06:50:02;;;;;;;8.85;5.07;;;0.00;99.90;;;;;;5023059;28;20094;-69
2022/03/05 06:52:28;;;;;;;9.07;3.20;;;0.10;99.90;;;;;;5039375;28;20049;-69
2022/03/05 06:54:53;;;;;;;7.38;4.85;;;0.10;99.90;;;;;;5038568;28;20171;-69
2022/03/05 06:57:19;;;;;;;8.10;3.55;;;0.00;99.90;;;;;;5040129;28;20048;-69
2022/03/05 06:59:44;;;;;;;6.75;3.88;;;0.10;99.90;;;;;;5038457;28;20086;-69
2022/03/05 07:02:10;;;;;;;10.18;4.70;;;0.10;99.90;;;;;;5038141;28;20460;-70
2022/03/05 07:04:35;;;;;;;7.45;4.03;;;0.10;99.90;;;;;;5039417;28;20044;-69
2022/03/05 07:07:01;;;;;;;7.50;4.72;;;0.20;99.90;;;;;;5037777;28;20136;-69
2022/03/05 07:09:26;;;;;;;7.30;4.43;;;0.20;99.90;;;;;;5040226;28;20102;-69
2022/03/05 07:11:52;;;;;;;9.52;6.30;;;0.20;99.90;;;;;;5035204;28;20035;-69
2022/03/05 07:14:17;;;;;;;8.32;5.13;;;0.30;99.90;;;;;;5037519;28;20041;-69
2022/03/05 07:16:43;;;;;;;10.48;5.63;;;0.30;99.90;;;;;;5034386;28;20170;-70
2022/03/05 07:19:08;;;;;;;9.73;5.22;;;0.30;99.90;;;;;;5038303;28;20028;-70
2022/03/05 07:21:34;;;;;;;7.28;4.18;;;0.40;99.90;;;;;;5037490;28;20068;-70
2022/03/05 07:24:00;;;;;;;11.77;4.95;;;0.50;99.90;;;;;;5032085;28;20026;-70
2022/03/05 07:26:26;;;;;;;;;;;0.50;99.90;;;;;;5035614;28;20470;-70
2022/03/05 07:28:51;;;;;;;9.27;5.07;;;0.60;99.90;;;;;;5037988;28;19909;-70
2022/03/05 07:31:18;;;;;;;6.15;5.07;;;0.60;99.90;;;;;;5035882;28;20112;-70
2022/03/05 07:33:44;;;;;;;6.47;4.00;;;0.70;99.90;;;;;;5037986;28;20405;-70
2022/03/05 07:36:10;;;;;;;7.50;4.57;;;0.80;99.90;;;;;;5037510;28;20032;-69
2022/03/05 07:38:36;;;;;;;10.80;5.35;;;0.80;99.90;;;;;;5036824;28;20052;-70
2022/03/05 07:41:02;;;;;;;12.32;7.35;;;0.90;99.90;;;;;;5036616;28;20107;-70
2022/03/05 07:43:27;;;;;;;10.05;5.70;;;1.00;99.90;;;;;;5037040;28;20035;-70
2022/03/05 07:45:53;;;;;;;12.60;6.85;;;1.10;99.90;;;;;;5036347;28;20405;-69
2022/03/05 07:48:21;;;;;;;8.57;4.25;;;1.20;99.90;;;;;;5035908;28;20033;-70
2022/03/05 07:50:49;;;;;;;12.82;5.00;;;1.30;99.90;;;;;;5039531;28;20033;-68
2022/03/05 07:53:15;;;;;;;7.55;4.32;;;1.40;99.90;;;;;;5036988;28;20310;-67
2022/03/05 07:55:41;;;;;;;8.18;4.88;;;1.60;99.90;;;;;;5039329;28;20120;-70
2022/03/05 07:58:06;;;;;;;9.95;4.38;;;1.80;99.90;;;;;;5035593;28;20111;-72
2022/03/05 08:00:32;;;;;;;9.93;4.50;;;1.80;99.90;;;;;;5038430;28;20061;-71
2022/03/05 08:02:58;;;;;;;10.35;5.35;;;1.80;99.90;;;;;;5037785;28;20024;-70
2022/03/05 08:05:24;;;;;;;9.57;4.72;;;1.80;99.90;;;;;;5038201;28;20067;-70
2022/03/05 08:07:50;;;;;;;6.28;3.88;;;1.90;99.90;;;;;;5035774;28;20082;-70
2022/03/05 08:10:16;;;;;;;8.27;4.68;;;1.90;99.90;;;;;;5037230;28;20033;-71
2022/03/05 08:12:42;;;;;;;10.88;3.08;;;1.90;99.90;;;;;;5035487;28;20124;-70
2022/03/05 08:15:08;;;;;;;6.80;3.83;;;2.00;99.90;;;;;;5035704;28;20052;-70
2022/03/05 08:17:34;;;;;;;3.78;2.35;;;2.00;99.90;;;;;;5037912;28;20392;-71
2022/03/05 08:19:59;;;;;;;9.75;3.90;;;2.20;99.90;;;;;;5036674;28;20025;-71
2022/03/05 08:22:25;;;;;;;8.25;3.75;;;2.20;99.90;;;;;;5035234;28;20041;-71
2022/03/05 08:24:50;;;;;;;9.60;3.58;;;2.30;99.90;;;;;;5037822;28;20032;-70
2022/03/05 08:27:16;;;;;;;19.98;8.75;;;2.40;99.90;;;;;;5036704;28;20036;-71
2022/03/05 08:29:42;;;;;;;15.30;7.72;;;2.50;99.90;;;;;;5037053;28;20473;-69
2022/03/05 08:32:08;;;;;;;7.05;3.70;;;2.50;99.90;;;;;;5033494;28;20468;-72
2022/03/05 08:34:34;;;;;;;16.77;9.80;;;2.70;99.90;;;;;;5036128;28;20045;-70
2022/03/05 08:36:59;;;;;;;3.20;2.03;;;2.70;99.90;;;;;;5037051;28;20481;-71
2022/03/05 08:39:25;;;;;;;5.72;2.17;;;2.80;99.90;;;;;;5038200;28;20033;-71
2022/03/05 08:41:51;;;;;;;6.57;2.17;;;2.90;99.90;;;;;;5033629;28;20057;-70
2022/03/05 08:44:16;;;;;;;8.10;2.70;;;2.90;99.90;;;;;;5036449;28;20033;-70
2022/03/05 08:46:42;;;;;;;5.30;2.08;;;2.90;99.90;;;;;;5033276;28;20029;-70
2022/03/05 08:49:07;;;;;;;3.70;1.90;;;3.00;99.90;;;;;;5036954;28;20159;-70
2022/03/05 08:51:33;;;;;;;7.70;4.57;;;3.10;99.90;;;;;;5036821;28;20037;-70
2022/03/05 08:53:58;;;;;;;3.60;2.13;;;3.10;99.90;;;;;;5037462;28;20166;-70
2022/03/05 08:56:24;;;;;;;7.32;3.13;;;3.20;99.90;;;;;;5037831;28;20103;-71
2022/03/05 08:58:49;;;;;;;5.90;2.75;;;3.30;99.90;;;;;;5035432;28;20059;-71
2022/03/05 09:01:15;;;;;;;6.10;2.53;;;3.40;99.90;;;;;;5035185;28;20120;-71
2022/03/05 09:03:41;;;;;;;3.72;2.80;;;3.40;99.90;;;;;;5029805;28;20925;-71
2022/03/05 09:06:07;;;;;;;9.48;4.47;;;3.40;99.90;;;;;;5033407;28;20029;-71
2022/03/05 09:08:33;;;;;;;10.52;4.18;;;3.30;99.90;;;;;;5036568;28;20519;-71
2022/03/05 09:10:59;;;;;;;7.20;3.10;;;3.40;99.90;;;;;;5034108;28;20255;-72
2022/03/05 09:13:24;;;;;;;6.70;3.00;;;3.60;99.90;;;;;;5033196;28;20032;-71
2022/03/05 09:15:50;;;;;;;7.05;2.50;;;3.60;99.90;;;;;;5033400;28;20021;-71
2022/03/05 09:18:15;;;;;;;6.70;2.97;;;3.60;99.90;;;;;;5035053;28;20060;-71
2022/03/05 09:20:46;;;;;;;7.22;3.38;;;3.70;99.90;;;;;;5035888;28;20025;-71
2022/03/05 09:23:12;;;;;;;9.57;4.00;;;3.80;99.80;;;;;;5032830;28;20025;-71
2022/03/05 09:25:37;;;;;;;;;;;3.80;99.80;;;;;;5035919;28;20468;-70
2022/03/05 09:28:03;;;;;;;11.10;4.13;;;3.80;99.80;;;;;;5032996;28;19956;-71
2022/03/05 09:30:28;;;;;;;14.88;7.68;;;3.80;99.70;;;;;;5036487;28;20108;-71
2022/03/05 09:32:54;;;;;;;11.98;6.40;;;3.90;99.90;;;;;;5035735;28;20549;-71
2022/03/05 09:35:19;;;;;;;10.93;5.10;;;4.00;99.70;;;;;;5037456;28;20479;-71
2022/03/05 09:37:45;;;;;;;14.18;6.72;;;4.10;99.50;;;;;;5035841;28;20060;-70
2022/03/05 09:40:12;;;;;;;12.80;6.38;;;4.20;99.70;;;;;;5034068;28;20116;-70
2022/03/05 09:42:41;;;;;;;15.52;5.43;;;4.30;99.70;;;;;;5034183;28;20045;-71
2022/03/05 09:45:07;;;;;;;12.00;7.25;;;4.50;99.60;;;;;;5035082;28;20059;-71
2022/03/05 09:47:36;;;;;;;;;;;4.50;99.50;;;;;;5036817;28;20494;-73
2022/03/05 09:50:05;;;;;;;9.35;4.45;;;4.60;99.10;;;;;;5037770;28;19916;-74
2022/03/05 09:52:31;;;;;;;13.40;4.93;;;4.60;99.30;;;;;;5034115;28;20021;-73
2022/03/05 09:54:56;;;;;;;10.10;5.50;;;4.70;98.90;;;;;;5030613;28;20025;-76
2022/03/05 09:57:22;;;;;;;9.45;5.07;;;4.80;99.40;;;;;;5031559;28;20030;-74
2022/03/05 09:59:47;;;;;;;8.75;5.13;;;4.90;98.30;;;;;;5034676;28;20033;-75
2022/03/05 10:02:13;;;;;;;6.72;4.20;;;5.10;98.30;;;;;;5030475;28;20128;-75
2022/03/05 10:04:39;;;;;;;9.55;5.93;;;5.10;98.40;;;;;;5035074;28;20183;-77
2022/03/05 10:07:12;;;;;;;7.72;5.05;;;5.10;97.70;;;;;;5035284;28;20978;-77
2022/03/05 10:09:38;;;;;;;12.63;5.00;;;5.10;97.70;;;;;;5032869;28;20055;-77
2022/03/05 10:12:30;;;;;;;6.70;4.40;;;5.10;97.70;;;;;;5032306;28;20530;-75
2022/03/05 10:15:09;;;;;;;10.23;4.38;;;5.20;97.30;;;;;;5032833;28;20044;-75
2022/03/05 10:18:05;;;;;;;7.60;4.95;;;5.30;97.30;;;;;;5034891;28;20556;-75
2022/03/05 10:20:32;;;;;;;6.95;3.70;;;5.40;96.70;;;;;;5030921;28;20051;-75
2022/03/05 10:23:07;;;;;;;8.00;4.43;;;5.40;96.50;;;;;;5036546;28;20052;-74
2022/03/05 10:25:39;;;;;;;5.85;3.63;;;5.40;96.60;;;;;;5036318;28;20527;-75
2022/03/05 10:28:05;;;;;;;5.55;3.90;;;5.50;96.10;;;;;;5036825;28;20120;-75
2022/03/05 10:30:33;;;;;;;8.32;4.55;;;5.60;96.20;;;;;;5035317;28;20108;-74
2022/03/05 10:32:58;;;;;;;10.50;5.60;;;5.60;96.60;;;;;;5032957;28;20057;-74
2022/03/05 10:35:24;;;;;;;7.18;3.97;;;5.60;96.60;;;;;;5031500;28;20169;-75
2022/03/05 10:37:54;;;;;;;8.25;5.05;;;5.80;96.20;;;;;;5030006;28;20032;-74
2022/03/05 10:40:26;;;;;;;8.57;3.97;;;5.90;95.10;;;;;;5032997;28;20033;-72
2022/03/05 10:42:52;;;;;;;6.80;4.20;;;5.90;97.10;;;;;;5032119;28;20036;-76
2022/03/05 10:45:18;;;;;;;10.30;4.38;;;6.00;95.30;;;;;;5034325;28;20402;-76
2022/03/05 10:47:51;;;;;;;;;;;6.00;95.40;;;;;;5033600;28;20083;-73
2022/03/05 10:50:23;;;;;;;8.77;3.60;;;6.10;95.20;;;;;;5037380;28;20043;-74
2022/03/05 10:52:51;;;;;;;5.78;3.50;;;6.10;94.40;;;;;;5035133;28;20017;-74
2022/03/05 10:55:19;;;;;;;4.50;3.90;;;6.10;93.80;;;;;;5035386;28;20057;-74
2022/03/05 10:58:00;;;;;;;8.32;4.20;;;6.20;94.70;;;;;;5033918;28;20037;-73
2022/03/05 11:00:25;;;;;;;12.88;7.18;;;6.30;93.90;;;;;;5035131;28;20025;-73
2022/03/05 11:02:52;;;;;;;5.10;3.10;;;6.30;94.50;;;;;;5035725;28;20026;-74
2022/03/05 11:05:21;;;;;;;7.53;3.63;;;6.30;92.10;;;;;;5035875;28;20094;-74
2022/03/05 11:07:51;;;;;;;7.70;4.63;;;6.30;93.00;;;;;;5037128;28;20025;-73
2022/03/05 11:10:22;;;;;;;10.93;4.25;;;6.40;92.70;;;;;;5037315;28;20389;-74
2022/03/05 11:12:51;;;;;;;5.22;3.88;;;6.50;91.40;;;;;;5034370;28;20034;-76
2022/03/05 11:15:18;;;;;;;7.47;4.43;;;6.50;88.90;;;;;;5036643;28;20355;-81
2022/03/05 11:17:45;;;;;;;7.00;3.90;;;6.50;90.80;;;;;;5036378;28;20086;-77
2022/03/05 11:20:12;;;;;;;7.35;4.32;;;6.40;90.00;;;;;;5040024;28;20049;-76
2022/03/05 11:22:38;;;;;;;9.20;4.70;;;6.40;89.80;;;;;;5036903;28;20040;-75
2022/03/05 11:25:04;;;;;;;7.78;4.20;;;6.40;91.20;;;;;;5037277;28;20033;-75
2022/03/05 11:27:30;;;;;;;7.65;4.43;;;6.60;90.20;;;;;;5038874;28;20037;-76
2022/03/05 11:30:00;;;;;;;8.20;4.15;;;6.70;84.30;;;;;;5039193;28;20427;-75
2022/03/05 11:32:31;;;;;;;5.13;3.30;;;6.80;89.60;;;;;;5035750;28;20021;-75
2022/03/05 11:34:57;;;;;;;9.15;3.55;;;6.80;80.60;;;;;;5039147;28;20112;-76
2022/03/05 11:37:33;;;;;;;6.10;4.78;;;6.90;82.40;;;;;;5038059;28;20178;-76
2022/03/05 11:40:00;;;;;;;5.25;3.70;;;6.90;77.90;;;;;;5031784;28;20289;-72
2022/03/05 11:42:31;;;;;;;5.63;3.60;;;6.90;79.10;;;;;;5037156;28;20377;-71
2022/03/05 11:44:57;;;;;;;8.02;3.65;;;6.80;84.30;;;;;;5037106;28;20123;-70
2022/03/05 11:47:26;;;;;;;8.45;4.13;;;6.90;80.60;;;;;;5036214;28;20025;-71
2022/03/05 11:50:02;;;;;;;5.88;4.07;;;6.90;78.20;;;;;;5037670;28;20390;-71
2022/03/05 11:52:43;;;;;;;7.20;4.90;;;6.90;74.00;;;;;;5036905;28;20418;-71
2022/03/05 11:55:11;;;;;;;5.35;4.20;;;7.00;77.80;;;;;;5037439;28;20196;-71
2022/03/05 11:57:41;;;;;;;5.93;3.67;;;7.20;78.60;;;;;;5035997;28;20119;-71
2022/03/05 12:00:07;;;;;;;7.40;4.68;;;7.50;76.30;;;;;;5033008;28;20036;-76
2022/03/05 12:02:47;;;;;;;6.63;3.88;;;7.60;73.90;;;;;;5038150;28;20200;-76
2022/03/05 12:05:38;;;;;;;6.40;3.90;;;7.70;73.00;;;;;;5036788;28;20040;-73
2022/03/05 12:08:24;;;;;;;6.20;4.20;;;7.50;73.40;;;;;;5036294;28;20122;-73
2022/03/05 12:11:10;;;;;;;4.95;3.95;;;7.50;75.00;;;;;;5031416;28;20069;-72
2022/03/05 12:13:46;;;;;;;4.82;4.10;;;7.60;72.90;;;;;;5034724;28;20126;-73
2022/03/05 12:16:19;;;;;;;;;;;7.80;73.70;;;;;;5034010;28;20048;-72
2022/03/05 12:18:45;;;;;;;6.32;4.85;;;8.00;71.10;;;;;;5050980;22;19947;-58
2022/03/05 12:21:12;;;;;;;6.45;4.28;;;8.10;70.80;;;;;;5044849;28;20021;-56
2022/03/05 12:23:37;;;;;;;6.28;3.90;;;8.20;71.10;;;;;;5040873;28;20025;-53
2022/03/05 12:26:05;;;;;;;6.50;4.82;;;8.10;72.80;;;;;;5045795;28;20036;-54
2022/03/05 12:28:41;;;;;;;5.55;5.05;;;7.80;71.20;;;;;;5046936;28;20028;-51
2022/03/05 12:31:15;;;;;;;5.50;3.92;;;7.70;70.80;;;;;;5047321;28;20025;-53
2022/03/05 12:33:40;;;;;;;10.27;6.38;;;7.60;70.00;;;;;;5042487;28;20033;-53
2022/03/05 12:36:12;;;;;;;8.20;5.15;;;7.70;64.90;;;;;;5045420;28;20036;-57
2022/03/05 12:38:38;;;;;;;7.85;4.35;;;7.80;66.00;;;;;;5045688;28;20811;-55
2022/03/05 12:41:03;;;;;;;8.77;4.43;;;7.70;67.30;;;;;;5045678;28;20048;-51
2022/03/05 12:43:29;;;;;;;10.18;4.88;;;7.60;69.00;;;;;;5044987;28;20486;-51
2022/03/05 12:45:54;;;;;;;;;;;7.90;70.90;;;;;;5045310;28;20035;-52
2022/03/05 12:48:22;;;;;;;6.28;4.65;;;8.00;66.00;;;;;;5054186;22;20003;-52
2022/03/05 12:50:53;;;;;;;5.72;3.78;;;7.90;64.50;;;;;;5038174;28;20033;-55
2022/03/05 12:53:29;;;;;;;11.63;4.50;;;7.80;64.40;;;;;;5038797;28;20037;-56